Redmond, OR (97756)

9:11 PM PST on December 08, 2016 (GMT -0800)
Budget Storage of Redmond - Weather | | Change Station
Active Advisory: Winter Storm Warning

Elev 3027 ft 44.26 °N, 121.18 °W | Updated 2 seconds ago

Mostly Cloudy
Mostly Cloudy
14.2 °F
Feels Like 14 °F
N
0.0
Wind Variable Wind from NW
Gusts 0.0 mph

Today
High -- | Low -- °F
--% Chance of Precip.
Yesterday
High -- | Low -- °F
Precip. -- in
Pressure 30.13 in
Visibility 10.0 miles
Clouds Mostly Cloudy 2000 ft
Windchill 14 °F
Dew Point 12 °F
Humidity 89%
Rainfall 0.25 in
Snow Depth Not available.
7:28 AM 4:25 PM
Waxing Gibbous, 70% visible
METAR KRDM 090456Z AUTO 00000KT 10SM BKN020 M11/M13 A3000 RMK AO2 SLP202 T11111133
Pressure 30.13 in
Visibility 10.0 miles
Clouds Mostly Cloudy 2000 ft
Windchill 14 °F
Dew Point 12 °F
Humidity 89%
Rainfall 0.25 in
Snow Depth Not available.
7:28 AM 4:25 PM
Waxing Gibbous, 70% visible
METAR KRDM 090456Z AUTO 00000KT 10SM BKN020 M11/M13 A3000 RMK AO2 SLP202 T11111133

10-Day Weather Forecast

Almanac

Astronomy

Dec. 08, 2016 Rise Set
Actual Time
Civil Twilight
Nautical Twilight
Astronomical Twilight
Moon
Length of Visible Light
Length of Day
Tomorrow will be .
, % of the Moon is Illuminated

Today's Extremes

State Highs State Lows

Community

WunderPhotos

Upload Photos

1,956,370 photos uploaded!

WunderBlog® & News

Nearby

Air Quality

  Air Quality AQ Index Pollutant
Not available.

Snow Depth

Station Depth Elevation

Earthquake Activity

City Distance Mag. Time & Date
Minimum magnitude displayed is 2.5.

Coastal Water Temperatures

Place Temperature

Stations

Nearby Weather Stations

Station Location Temp. Windchill Dew Point Humidity Wind Precip. Elev Updated Type
                   

Watches & Warnings

Winter Storm Warning
Issued: 2:34 PM PST Dec. 8, 2016 – National Weather Service

... Winter Storm Warning remains in effect until 10 PM PST this
evening...

* locations... Bend... Madras... Prineville... Redmond.

* Ice accumulations... up to a tenth of an inch.

* Snow accumulations... 4 to 7 inches.

* Timing... snow will continue this evening... decreasing in
coverage overnight. A chance of sleet or freezing rain is
possible overnight.

* Impacts... area roadways will be snow or ice covered and slick.

* Winds... northeast winds 5 to 15 mph.

* Snow level... valley floors rising to 2500 to 3500 feet by the
overnight hours.

* Web page: for a detailed view of the hazard area visit
http://www.Wrh.NOAA.Gov/map/?Wfo=pdt.

Precautionary/preparedness actions...

A Winter Storm Warning for heavy snow means severe winter weather
conditions are expected or occurring. Significant amounts of snow
are forecast that will make travel dangerous. Only travel in an
emergency. If you must travel... keep an extra flashlight...
food... and water in your vehicle in case of an emergency.